createdAt,value
2019-06-10T00:00:41.451Z,21.35
2019-06-10T00:03:11.982Z,21.38
2019-06-10T00:05:42.806Z,21.33
2019-06-10T00:08:13.378Z,21.34
2019-06-10T00:10:44.124Z,21.36
2019-06-10T00:13:14.782Z,21.42
2019-06-10T00:15:45.474Z,21.48
2019-06-10T00:18:34.053Z,21.42
2019-06-10T00:20:51.083Z,21.41
2019-06-10T00:23:21.429Z,21.40
2019-06-10T00:25:52.324Z,21.34
2019-06-10T00:28:23.178Z,21.42
2019-06-10T00:30:54.260Z,21.34
2019-06-10T00:33:24.909Z,21.36
2019-06-10T00:35:55.881Z,21.31
2019-06-10T00:38:26.546Z,21.31
2019-06-10T00:40:57.201Z,21.30
2019-06-10T00:43:27.877Z,21.29
2019-06-10T00:46:00.737Z,21.31
2019-06-10T00:48:32.529Z,21.23
2019-06-10T00:51:04.532Z,21.25
2019-06-10T00:53:35.748Z,21.20
2019-06-10T00:56:07.275Z,21.19
2019-06-10T00:58:40.849Z,21.15
2019-06-10T01:01:14.431Z,21.14
2019-06-10T01:03:43.950Z,21.14
2019-06-10T01:06:15.136Z,21.11
2019-06-10T01:08:46.121Z,21.13
2019-06-10T01:11:21.210Z,20.99
2019-06-10T01:13:50.815Z,21.08
2019-06-10T01:16:21.903Z,21.00
2019-06-10T01:18:53.619Z,20.99
2019-06-10T01:21:24.413Z,20.88
2019-06-10T01:23:55.285Z,21.00
2019-06-10T01:26:25.924Z,20.99
2019-06-10T01:28:56.589Z,20.96
2019-06-10T01:31:27.261Z,20.95
2019-06-10T01:33:57.916Z,20.99
2019-06-10T01:36:28.574Z,20.88
2019-06-10T01:39:01.417Z,20.80
2019-06-10T01:41:33.303Z,20.77
2019-06-10T01:44:04.034Z,20.72
2019-06-10T01:46:34.905Z,20.75
2019-06-10T01:49:06.760Z,20.78
2019-06-10T01:51:38.097Z,20.81
2019-06-10T01:54:10.023Z,20.68
2019-06-10T01:56:41.230Z,20.63
2019-06-10T01:59:13.740Z,20.61
2019-06-10T02:01:48.834Z,20.63
2019-06-10T02:04:22.088Z,20.76
2019-06-10T02:06:52.066Z,20.76
2019-06-10T02:09:23.264Z,20.82
2019-06-10T02:11:53.995Z,20.79
2019-06-10T02:14:24.763Z,20.77
2019-06-10T02:16:55.627Z,20.75
2019-06-10T02:19:26.338Z,20.78
2019-06-10T02:21:57.218Z,20.83
2019-06-10T02:24:27.898Z,20.82
2019-06-10T02:27:00.905Z,20.83
2019-06-10T02:29:31.120Z,20.68
2019-06-10T02:32:04.858Z,20.57
2019-06-10T02:34:39.226Z,20.47
2019-06-10T02:37:06.505Z,20.39
2019-06-10T02:39:38.912Z,20.30
2019-06-10T02:42:13.675Z,20.38
2019-06-10T02:44:44.606Z,20.28
2019-06-10T02:47:19.868Z,20.37
2019-06-10T02:49:57.449Z,20.28
2019-06-10T02:52:28.713Z,20.36
2019-06-10T02:54:53.748Z,20.41
2019-06-10T02:57:32.903Z,20.44
2019-06-10T02:59:58.118Z,20.43
2019-06-10T03:02:32.023Z,20.37
2019-06-10T03:05:04.416Z,20.37
2019-06-10T03:07:35.612Z,20.37
2019-06-10T03:10:06.832Z,20.38
2019-06-10T03:12:37.507Z,20.54
2019-06-10T03:15:09.280Z,20.58
2019-06-10T03:17:39.950Z,20.62
2019-06-10T03:20:12.309Z,20.57
2019-06-10T03:22:44.015Z,20.64
2019-06-10T03:25:16.290Z,20.62
2019-06-10T03:27:47.018Z,20.70
2019-06-10T03:30:26.363Z,20.72
2019-06-10T03:32:50.589Z,20.82
2019-06-10T03:35:23.833Z,20.72
2019-06-10T03:37:53.644Z,20.75
2019-06-10T03:40:26.144Z,20.68
2019-06-10T03:42:56.699Z,20.66
2019-06-10T03:45:28.549Z,20.61
2019-06-10T03:47:59.328Z,20.69
2019-06-10T03:50:32.364Z,20.71
2019-06-10T03:53:04.351Z,20.78
2019-06-10T03:55:34.872Z,20.87
2019-06-10T03:58:05.666Z,20.82
2019-06-10T04:00:37.137Z,20.87
2019-06-10T04:03:07.987Z,21.00
2019-06-10T04:05:38.652Z,21.00
2019-06-10T04:08:09.337Z,20.89
2019-06-10T04:10:40.005Z,21.06
2019-06-10T04:13:13.052Z,21.09
2019-06-10T04:15:43.278Z,21.14
2019-06-10T04:18:14.080Z,21.16
2019-06-10T04:20:44.874Z,21.30
2019-06-10T04:23:15.826Z,21.30
2019-06-10T04:25:46.696Z,21.33
2019-06-10T04:28:17.798Z,21.31
2019-06-10T04:30:48.613Z,21.33
2019-06-10T04:35:48.764Z,21.43
2019-06-10T04:38:20.977Z,21.44
2019-06-10T04:40:52.538Z,21.58
2019-06-10T04:43:24.903Z,21.60
2019-06-10T04:45:55.736Z,21.73
2019-06-10T04:48:28.096Z,22.02
2019-06-10T04:50:59.240Z,21.56
2019-06-10T04:53:29.913Z,21.99
2019-06-10T04:56:02.904Z,22.35
2019-06-10T04:58:33.906Z,22.30
2019-06-10T05:01:04.913Z,22.77
2019-06-10T05:03:35.671Z,23.01
2019-06-10T05:06:06.530Z,22.83
2019-06-10T05:08:37.200Z,22.75
2019-06-10T05:11:08.070Z,22.78
2019-06-10T05:13:38.851Z,23.47
2019-06-10T05:16:12.280Z,23.36
2019-06-10T05:18:42.674Z,23.40
2019-06-10T05:21:13.423Z,23.46
2019-06-10T05:23:44.121Z,23.70
2019-06-10T05:26:14.893Z,23.85
2019-06-10T05:28:45.635Z,23.87
2019-06-10T05:31:16.473Z,23.78
2019-06-10T05:33:49.222Z,23.62
2019-06-10T05:36:20.647Z,23.79
2019-06-10T05:38:52.586Z,24.14
2019-06-10T05:41:24.865Z,24.76
2019-06-10T05:43:56.132Z,24.97
2019-06-10T05:46:28.620Z,25.19
2019-06-10T05:48:59.926Z,25.27
2019-06-10T05:51:33.447Z,25.80
2019-06-10T05:54:03.571Z,25.76
2019-06-10T05:56:35.702Z,26.80
2019-06-10T05:59:06.587Z,26.37
2019-06-10T06:01:38.619Z,25.27
2019-06-10T06:04:09.540Z,27.67
2019-06-10T06:06:42.499Z,28.43
2019-06-10T06:09:13.155Z,29.30
2019-06-10T06:11:43.906Z,29.63
2019-06-10T06:14:14.598Z,30.29
2019-06-10T06:16:45.346Z,30.87
2019-06-10T06:19:16.023Z,31.07
2019-06-10T06:21:47.910Z,30.15
2019-06-10T06:24:18.829Z,30.91
2019-06-10T06:26:49.655Z,31.78
2019-06-10T06:29:22.249Z,32.04
2019-06-10T06:31:52.802Z,32.28
2019-06-10T06:34:23.574Z,32.49
2019-06-10T06:36:54.244Z,31.92
2019-06-10T06:39:24.942Z,32.48
2019-06-10T06:41:55.678Z,32.09
2019-06-10T06:44:27.550Z,31.76
2019-06-10T06:46:58.378Z,30.62
2019-06-10T06:49:30.473Z,31.39
2019-06-10T06:52:02.918Z,31.55
2019-06-10T06:54:36.080Z,32.61
2019-06-10T06:57:06.463Z,33.59
2019-06-10T06:59:40.856Z,33.73
2019-06-10T07:02:14.046Z,33.86
2019-06-10T07:04:44.928Z,33.68
2019-06-10T07:07:15.678Z,34.70
2019-06-10T07:09:49.410Z,32.34
2019-06-10T07:12:24.586Z,31.00
2019-06-10T07:14:57.783Z,30.74
2019-06-10T07:17:34.593Z,31.65
2019-06-10T07:20:08.317Z,31.12
2019-06-10T07:22:57.643Z,31.27
2019-06-10T07:25:28.324Z,30.66
2019-06-10T07:27:59.142Z,29.75
2019-06-10T07:30:34.291Z,29.30
2019-06-10T07:33:02.997Z,29.61
2019-06-10T07:35:36.073Z,28.78
2019-06-10T07:38:07.322Z,28.40
2019-06-10T07:40:39.195Z,28.63
2019-06-10T07:43:09.904Z,28.99
2019-06-10T07:45:43.709Z,28.62
2019-06-10T07:48:13.149Z,28.29
2019-06-10T07:50:45.668Z,28.14
2019-06-10T07:53:17.103Z,28.08
2019-06-10T07:55:47.778Z,28.46
2019-06-10T07:58:22.298Z,28.88
2019-06-10T08:00:53.378Z,28.69
2019-06-10T08:03:25.185Z,29.49
2019-06-10T08:05:55.873Z,29.63
2019-06-10T08:08:26.599Z,29.18
2019-06-10T08:10:57.275Z,30.07
2019-06-10T08:13:27.973Z,31.40
2019-06-10T08:15:58.646Z,30.58
2019-06-10T08:18:29.519Z,31.93
2019-06-10T08:21:03.099Z,32.58
2019-06-10T08:23:34.118Z,32.13
2019-06-10T08:26:05.421Z,32.43
2019-06-10T08:28:37.558Z,32.51
2019-06-10T08:31:08.433Z,33.43
2019-06-10T08:33:39.122Z,32.93
2019-06-10T08:36:09.826Z,33.94
2019-06-10T08:38:43.471Z,33.97
2019-06-10T08:41:13.093Z,32.11
2019-06-10T08:43:45.579Z,31.29
2019-06-10T08:46:16.537Z,31.17
2019-06-10T08:48:48.160Z,31.12
2019-06-10T08:51:19.699Z,31.79
2019-06-10T08:53:52.948Z,32.84
2019-06-10T08:56:22.859Z,32.36
2019-06-10T08:58:54.091Z,33.58
2019-06-10T09:01:25.037Z,33.85
2019-06-10T09:03:55.821Z,32.88
2019-06-10T09:06:26.579Z,34.05
2019-06-10T09:08:57.373Z,34.52
2019-06-10T09:11:28.850Z,35.32
2019-06-10T09:14:02.394Z,35.54
2019-06-10T09:16:32.992Z,34.50
2019-06-10T09:19:05.007Z,35.20
2019-06-10T09:21:35.656Z,35.34
2019-06-10T09:24:06.320Z,34.62
2019-06-10T09:26:37.006Z,35.51
2019-06-10T09:29:07.695Z,35.42
2019-06-10T09:31:39.484Z,36.08
2019-06-10T09:34:12.732Z,35.81
2019-06-10T09:36:47.644Z,35.93
2019-06-10T09:39:15.806Z,35.66
2019-06-10T09:41:54.128Z,36.05
2019-06-10T09:44:19.384Z,36.14
2019-06-10T09:46:56.007Z,35.39
2019-06-10T09:49:26.631Z,35.58
2019-06-10T09:51:57.807Z,35.94
2019-06-10T09:54:28.779Z,35.95
2019-06-10T09:57:02.396Z,35.91
2019-06-10T09:59:33.055Z,36.35
2019-06-10T10:02:07.057Z,35.94
2019-06-10T10:04:38.164Z,35.28
2019-06-10T10:07:09.052Z,34.17
2019-06-10T10:09:42.102Z,34.06
2019-06-10T10:12:12.337Z,33.82
2019-06-10T10:14:46.481Z,33.55
2019-06-10T10:17:15.580Z,33.60
2019-06-10T10:19:48.639Z,34.03
2019-06-10T10:22:18.671Z,34.16
2019-06-10T10:24:49.461Z,34.23
2019-06-10T10:27:20.120Z,34.01
2019-06-10T10:29:55.057Z,33.55
2019-06-10T10:32:23.416Z,33.14
2019-06-10T10:34:56.392Z,32.98
2019-06-10T10:37:26.401Z,32.41
2019-06-10T10:39:57.269Z,32.51
2019-06-10T10:42:41.586Z,32.55
2019-06-10T10:45:02.757Z,32.73
2019-06-10T10:47:33.694Z,32.95
2019-06-10T10:50:07.433Z,33.70
2019-06-10T10:52:38.253Z,33.68
2019-06-10T10:55:09.678Z,33.32
2019-06-10T10:57:40.432Z,33.05
2019-06-10T11:00:13.255Z,33.26
2019-06-10T11:02:47.120Z,33.37
2019-06-10T11:05:36.157Z,33.34
2019-06-10T11:08:07.887Z,32.93
2019-06-10T11:10:38.719Z,33.02
2019-06-10T11:13:12.231Z,33.01
2019-06-10T11:15:43.500Z,32.92
2019-06-10T11:18:14.765Z,33.02
2019-06-10T11:20:45.465Z,33.54
2019-06-10T11:23:16.288Z,33.63
2019-06-10T11:25:47.764Z,33.22
2019-06-10T11:28:18.774Z,32.73
2019-06-10T11:30:49.608Z,32.86
2019-06-10T11:33:22.769Z,33.03
2019-06-10T11:35:55.123Z,33.27
2019-06-10T11:38:25.071Z,34.00
2019-06-10T11:40:58.497Z,34.22
2019-06-10T11:43:29.129Z,34.23
2019-06-10T11:46:06.789Z,34.38
2019-06-10T11:48:32.899Z,34.48
2019-06-10T11:51:04.911Z,34.35
2019-06-10T11:53:36.179Z,34.04
2019-06-10T11:56:09.085Z,34.02
2019-06-10T11:58:42.631Z,33.85
2019-06-10T12:01:13.663Z,33.21
2019-06-10T12:03:44.323Z,33.24
2019-06-10T12:06:15.314Z,33.55
2019-06-10T12:08:46.899Z,33.73
2019-06-10T12:11:17.560Z,33.84
2019-06-10T12:13:49.100Z,34.27
2019-06-10T12:17:14.772Z,34.60
2019-06-10T12:18:54.165Z,34.30
2019-06-10T12:21:24.912Z,34.28
2019-06-10T12:24:00.097Z,34.22
2019-06-10T12:26:28.254Z,34.00
2019-06-10T12:29:05.284Z,33.67
2019-06-10T12:31:33.978Z,33.56
2019-06-10T12:34:06.163Z,33.57
2019-06-10T12:36:36.996Z,33.17
2019-06-10T12:39:10.727Z,33.57
2019-06-10T12:41:42.992Z,33.73
2019-06-10T12:44:13.860Z,33.38
2019-06-10T12:46:44.810Z,33.32
2019-06-10T12:49:18.467Z,33.55
2019-06-10T12:51:47.953Z,34.05
2019-06-10T12:54:19.029Z,34.11
2019-06-10T12:56:49.710Z,34.10
2019-06-10T12:59:20.433Z,33.92
2019-06-10T13:01:53.147Z,34.13
2019-06-10T13:04:25.205Z,34.31
2019-06-10T13:06:57.617Z,34.47
2019-06-10T13:09:32.097Z,34.03
2019-06-10T13:12:03.998Z,34.32
2019-06-10T13:14:34.798Z,33.76
2019-06-10T13:17:05.845Z,33.97
2019-06-10T13:19:36.547Z,33.97
2019-06-10T13:22:08.808Z,34.00
2019-06-10T13:24:42.785Z,34.33
2019-06-10T13:27:13.542Z,34.29
2019-06-10T13:29:44.250Z,34.48
2019-06-10T13:32:14.937Z,34.54
2019-06-10T13:34:46.000Z,34.60
2019-06-10T13:37:18.203Z,34.82
2019-06-10T13:39:48.953Z,34.70
2019-06-10T13:42:22.570Z,34.46
2019-06-10T13:44:53.024Z,34.25
2019-06-10T13:47:26.055Z,34.15
2019-06-10T13:49:58.985Z,34.08
2019-06-10T13:52:32.028Z,34.11
2019-06-10T13:55:04.019Z,33.95
2019-06-10T13:57:34.967Z,33.84
2019-06-10T14:00:11.526Z,33.90
2019-06-10T14:02:43.122Z,34.03
2019-06-10T14:05:18.327Z,33.76
2019-06-10T14:07:47.628Z,33.45
2019-06-10T14:10:19.317Z,33.50
2019-06-10T14:12:52.504Z,33.79
2019-06-10T14:15:22.758Z,33.68
2019-06-10T14:17:55.269Z,33.81
2019-06-10T14:20:26.067Z,33.66
2019-06-10T14:22:57.532Z,33.78
2019-06-10T14:25:28.997Z,33.91
2019-06-10T14:28:03.150Z,33.88
2019-06-10T14:30:32.744Z,33.83
2019-06-10T14:33:04.498Z,33.75
2019-06-10T14:35:36.514Z,33.06
2019-06-10T14:38:08.070Z,33.01
2019-06-10T14:40:43.010Z,33.10
2019-06-10T14:43:16.446Z,33.37
2019-06-10T14:45:47.344Z,33.43
2019-06-10T14:48:18.917Z,33.47
2019-06-10T14:50:49.696Z,33.42
2019-06-10T14:53:22.962Z,33.05
2019-06-10T14:55:53.574Z,33.04
2019-06-10T14:58:24.444Z,33.34
2019-06-10T15:00:57.425Z,33.49
2019-06-10T15:03:28.202Z,33.45
2019-06-10T15:05:59.125Z,33.42
2019-06-10T15:08:32.113Z,33.28
2019-06-10T15:11:02.857Z,33.30
2019-06-10T15:13:33.571Z,33.21
2019-06-10T15:16:04.709Z,32.95
2019-06-10T15:18:35.444Z,32.78
2019-06-10T15:21:06.135Z,32.89
2019-06-10T15:23:36.995Z,32.95
2019-06-10T15:26:07.976Z,33.02
2019-06-10T15:28:38.796Z,32.84
2019-06-10T15:31:10.903Z,32.81
2019-06-10T15:33:43.012Z,32.97
2019-06-10T15:36:15.296Z,32.86
2019-06-10T15:38:46.386Z,32.86
2019-06-10T15:41:20.007Z,32.91
2019-06-10T15:43:50.154Z,32.93
2019-06-10T15:46:21.180Z,33.01
2019-06-10T15:48:54.120Z,33.08
2019-06-10T15:51:26.115Z,33.09
2019-06-10T15:53:57.189Z,33.10
2019-06-10T15:56:39.905Z,32.88
2019-06-10T15:59:02.772Z,32.65
2019-06-10T16:01:32.942Z,32.43
2019-06-10T16:04:03.853Z,32.48
2019-06-10T16:06:34.607Z,32.48
2019-06-10T16:09:07.964Z,32.59
2019-06-10T16:11:40.345Z,32.76
2019-06-10T16:14:14.797Z,32.83
2019-06-10T16:16:45.965Z,32.53
2019-06-10T16:19:18.310Z,32.38
2019-06-10T16:21:49.169Z,32.40
2019-06-10T16:24:21.087Z,32.29
2019-06-10T16:26:53.573Z,32.27
2019-06-10T16:29:26.928Z,32.06
2019-06-10T16:31:57.303Z,32.05
2019-06-10T16:34:29.085Z,31.97
2019-06-10T16:37:02.285Z,31.71
2019-06-10T16:39:32.715Z,31.67
2019-06-10T16:42:03.807Z,31.75
2019-06-10T16:44:35.209Z,31.62
2019-06-10T16:47:07.772Z,31.61
2019-06-10T16:49:39.074Z,31.57
2019-06-10T16:52:12.132Z,31.62
2019-06-10T16:54:43.270Z,31.61
2019-06-10T16:57:15.664Z,31.50
2019-06-10T16:59:47.069Z,31.41
2019-06-10T17:02:19.219Z,31.39
2019-06-10T17:04:52.662Z,31.36
2019-06-10T17:07:24.751Z,31.29
2019-06-10T17:09:57.024Z,31.18
2019-06-10T17:12:28.645Z,31.11
2019-06-10T17:15:00.258Z,31.01
2019-06-10T17:17:32.795Z,30.89
2019-06-10T17:20:07.923Z,30.79
2019-06-10T17:22:43.456Z,30.81
2019-06-10T17:25:15.036Z,30.79
2019-06-10T17:27:45.983Z,30.76
2019-06-10T17:30:17.861Z,30.83
2019-06-10T17:32:48.730Z,30.79
2019-06-10T17:35:20.075Z,30.76
2019-06-10T17:37:52.328Z,30.62
2019-06-10T17:40:26.075Z,30.54
2019-06-10T17:42:57.180Z,30.48
2019-06-10T17:45:29.386Z,30.44
2019-06-10T17:48:02.963Z,30.37
2019-06-10T17:50:34.122Z,30.34
2019-06-10T17:53:05.070Z,30.30
2019-06-10T17:55:36.827Z,30.15
2019-06-10T17:58:08.166Z,30.09
2019-06-10T18:00:38.940Z,30.02
2019-06-10T18:03:09.719Z,29.90
2019-06-10T18:05:42.539Z,29.87
2019-06-10T18:08:13.172Z,29.76
2019-06-10T18:10:44.214Z,29.75
2019-06-10T18:13:16.946Z,29.70
2019-06-10T18:15:47.730Z,29.69
2019-06-10T18:18:18.411Z,29.61
2019-06-10T18:20:49.096Z,29.59
2019-06-10T18:23:19.776Z,29.51
2019-06-10T18:25:52.711Z,29.43
2019-06-10T18:28:23.069Z,29.39
2019-06-10T18:30:54.559Z,29.33
2019-06-10T18:33:25.661Z,29.28
2019-06-10T18:35:57.443Z,29.24
2019-06-10T18:38:29.435Z,29.20
2019-06-10T18:41:03.198Z,29.11
2019-06-10T18:43:35.693Z,29.06
2019-06-10T18:46:06.736Z,29.00
2019-06-10T18:48:38.178Z,28.97
2019-06-10T18:51:12.313Z,28.94
2019-06-10T18:53:43.611Z,28.88
2019-06-10T18:56:14.387Z,28.83
2019-06-10T18:58:45.113Z,28.78
2019-06-10T19:01:15.829Z,28.76
2019-06-10T19:03:47.026Z,28.74
2019-06-10T19:06:18.146Z,28.70
2019-06-10T19:08:48.930Z,28.68
2019-06-10T19:11:20.982Z,28.60
2019-06-10T19:13:52.971Z,28.57
2019-06-10T19:16:27.549Z,28.54
2019-06-10T19:18:58.363Z,28.54
2019-06-10T19:21:30.048Z,28.50
2019-06-10T19:24:03.064Z,28.40
2019-06-10T19:26:35.613Z,28.38
2019-06-10T19:29:06.105Z,28.32
2019-06-10T19:31:39.201Z,28.32
2019-06-10T19:34:13.075Z,28.27
2019-06-10T19:36:43.230Z,28.17
2019-06-10T19:39:14.056Z,28.15
2019-06-10T19:41:47.401Z,28.12
2019-06-10T19:44:17.517Z,28.10
2019-06-10T19:46:48.312Z,28.08
2019-06-10T19:49:18.952Z,28.02
2019-06-10T19:51:52.582Z,28.00
2019-06-10T19:54:23.533Z,28.01
2019-06-10T19:56:55.926Z,27.91
2019-06-10T19:59:26.615Z,27.85
2019-06-10T20:01:57.351Z,27.73
2019-06-10T20:04:28.181Z,27.55
2019-06-10T20:06:58.874Z,27.48
2019-06-10T20:09:29.558Z,27.43
2019-06-10T20:12:02.201Z,27.31
2019-06-10T20:14:32.749Z,27.24
2019-06-10T20:17:03.714Z,27.34
2019-06-10T20:19:35.670Z,27.37
2019-06-10T20:22:07.234Z,27.26
2019-06-10T20:24:38.451Z,27.21
2019-06-10T20:27:09.412Z,27.09
2019-06-10T20:29:43.049Z,27.16
2019-06-10T20:32:14.268Z,27.02
2019-06-10T20:34:45.989Z,27.07
2019-06-10T20:37:16.758Z,26.86
2019-06-10T20:39:47.801Z,26.76
2019-06-10T20:42:18.786Z,26.59
2019-06-10T20:44:51.545Z,26.47
2019-06-10T20:47:23.162Z,26.32
2019-06-10T20:49:56.134Z,26.28
2019-06-10T20:52:27.246Z,26.24
2019-06-10T20:54:58.035Z,26.16
2019-06-10T20:57:28.976Z,26.05
2019-06-10T21:00:00.881Z,26.08
2019-06-10T21:02:33.553Z,26.12
2019-06-10T21:05:10.132Z,26.15
2019-06-10T21:07:43.521Z,26.14
2019-06-10T21:10:16.903Z,26.10
2019-06-10T21:12:49.425Z,26.05
2019-06-10T21:15:19.916Z,26.03
2019-06-10T21:17:51.537Z,25.97
2019-06-10T21:20:22.578Z,25.94
2019-06-10T21:22:54.662Z,25.96
2019-06-10T21:25:25.476Z,25.85
2019-06-10T21:27:56.213Z,25.77
2019-06-10T21:30:40.564Z,25.80
2019-06-10T21:32:59.496Z,25.72
2019-06-10T21:35:30.161Z,25.68
2019-06-10T21:38:00.849Z,25.74
2019-06-10T21:40:33.036Z,25.74
2019-06-10T21:43:04.106Z,25.71
2019-06-10T21:45:34.798Z,25.64
2019-06-10T21:48:05.648Z,25.61
2019-06-10T21:50:39.058Z,25.61
2019-06-10T21:53:09.764Z,25.61
2019-06-10T21:55:42.420Z,25.64
2019-06-10T21:58:13.026Z,25.55
2019-06-10T22:00:58.036Z,25.50
2019-06-10T22:03:20.348Z,25.46
2019-06-10T22:05:51.614Z,25.48
2019-06-10T22:08:22.442Z,25.42
2019-06-10T22:10:55.040Z,25.54
2019-06-10T22:13:25.507Z,25.57
2019-06-10T22:15:57.151Z,25.54
2019-06-10T22:18:27.968Z,25.59
2019-06-10T22:20:58.653Z,25.61
2019-06-10T22:23:29.330Z,25.63
2019-06-10T22:26:02.756Z,25.61
2019-06-10T22:28:33.763Z,25.68
2019-06-10T22:31:16.088Z,25.71
2019-06-10T22:33:37.128Z,25.69
2019-06-10T22:36:07.910Z,25.70
2019-06-10T22:38:38.576Z,25.70
2019-06-10T22:41:09.452Z,25.64
2019-06-10T22:43:42.544Z,25.62
2019-06-10T22:46:12.718Z,25.57
2019-06-10T22:48:43.489Z,25.58
2019-06-10T22:51:14.281Z,25.53
2019-06-10T22:53:44.963Z,25.49
2019-06-10T22:56:15.701Z,25.53
2019-06-10T22:58:47.587Z,25.48
2019-06-10T23:01:32.678Z,25.38
2019-06-10T23:03:52.193Z,25.43
2019-06-10T23:06:23.366Z,25.26
2019-06-10T23:08:56.228Z,25.23
2019-06-10T23:11:26.721Z,25.13
2019-06-10T23:13:58.458Z,25.06
2019-06-10T23:16:29.866Z,25.09
2019-06-10T23:19:02.800Z,25.04
2019-06-10T23:21:32.923Z,24.99
2019-06-10T23:24:03.775Z,24.94
2019-06-10T23:26:34.575Z,24.92
2019-06-10T23:29:05.261Z,24.93
2019-06-10T23:31:48.800Z,24.88
2019-06-10T23:34:08.414Z,24.84
2019-06-10T23:36:39.197Z,24.95
2019-06-10T23:39:10.102Z,24.95
2019-06-10T23:41:43.237Z,24.92
2019-06-10T23:44:13.253Z,24.91
2019-06-10T23:46:44.040Z,24.85
2019-06-10T23:49:14.709Z,24.96
2019-06-10T23:51:45.412Z,24.92
2019-06-10T23:54:16.089Z,24.92
2019-06-10T23:56:48.026Z,24.96
2019-06-10T23:59:22.516Z,25.01
